Time;durP1;ratioP1;P1;durP2;ratioP2;P2;SDS_P1;SDS_P2;PMS_P1;PMS_P2;Temp;Humidity;BMP_temperature;BMP_pressure;BME280_temperature;BME280_humidity;BME280_pressure;Samples;Min_cycle;Max_cycle;Signal;HPM_P1;HPM_P2
2021/01/22 00:00:10;;;;;;;3.05;2.95;;;;;;;16.07;39.60;98538.97;4952094;28;96911;-76
2021/01/22 00:02:39;;;;;;;3.20;3.00;;;;;;;16.06;39.53;98531.91;4950766;28;97406;-78
2021/01/22 00:05:07;;;;;;;3.17;3.05;;;;;;;16.05;39.49;98529.25;4947139;28;97805;-76
2021/01/22 00:07:35;;;;;;;3.38;3.20;;;;;;;16.12;39.63;98538.94;4948817;28;97805;-77
2021/01/22 00:10:03;;;;;;;2.95;2.75;;;;;;;16.12;39.56;98523.94;4950229;28;96983;-77
2021/01/22 00:12:31;;;;;;;3.30;3.17;;;;;;;16.15;39.57;98521.25;4949926;28;97440;-76
2021/01/22 00:14:58;;;;;;;3.75;3.60;;;;;;;16.11;39.49;98511.56;4945720;28;100138;-77
2021/01/22 00:17:27;;;;;;;2.80;2.70;;;;;;;16.13;39.74;98511.53;4949219;28;98116;-77
2021/01/22 00:19:56;;;;;;;3.20;2.97;;;;;;;16.16;39.54;98528.34;4951153;28;97482;-78
2021/01/22 00:22:23;;;;;;;3.13;3.03;;;;;;;16.18;39.52;98529.19;4944380;28;97359;-78
2021/01/22 00:24:51;;;;;;;3.20;3.03;;;;;;;16.19;39.72;98520.34;4950164;28;99334;-77
2021/01/22 00:27:18;;;;;;;3.47;3.28;;;;;;;16.21;39.36;98526.53;4949326;28;99126;-78
2021/01/22 00:29:45;;;;;;;3.45;3.25;;;;;;;16.24;39.78;98523.84;4950407;28;97992;-78
2021/01/22 00:32:13;;;;;;;3.50;3.20;;;;;;;16.23;39.86;98511.50;4950340;28;97893;-77
2021/01/22 00:34:40;;;;;;;3.28;3.08;;;;;;;16.27;39.62;98511.50;4945504;28;98296;-77
2021/01/22 00:37:09;;;;;;;3.17;3.08;;;;;;;16.28;39.72;98500.00;4950354;28;97727;-77
2021/01/22 00:39:36;;;;;;;2.95;2.85;;;;;;;16.29;39.68;98507.06;4948875;28;97697;-77
2021/01/22 00:42:05;;;;;;;3.50;3.20;;;;;;;16.31;39.66;98495.56;4948117;28;97187;-77
2021/01/22 00:44:32;;;;;;;3.08;2.92;;;;;;;16.23;40.00;98495.63;4941835;28;98289;-77
2021/01/22 00:47:01;;;;;;;3.40;3.00;;;;;;;16.25;39.70;98485.00;4946134;28;97746;-77
2021/01/22 00:49:29;;;;;;;3.15;2.90;;;;;;;16.24;39.99;98485.88;4951653;28;96787;-77
2021/01/22 00:51:57;;;;;;;2.60;2.53;;;;;;;16.25;40.14;98479.72;4961335;28;97270;-76
2021/01/22 00:54:26;;;;;;;2.70;2.60;;;;;;;16.27;39.92;98479.69;4960079;28;98882;-77
2021/01/22 00:57:29;;;;;;;3.25;3.15;;;;;;;16.26;39.99;98483.25;4945296;28;98284;-75
2021/01/22 00:59:56;;;;;;;2.92;2.80;;;;;;;16.27;40.13;98487.66;4958486;28;97540;-76
2021/01/22 01:02:24;;;;;;;3.05;2.95;;;;;;;16.29;39.80;98477.91;4948104;28;97300;-77
2021/01/22 01:04:52;;;;;;;2.58;2.58;;;;;;;16.28;40.00;98484.13;4939541;28;98284;-77
2021/01/22 01:07:19;;;;;;;3.05;2.88;;;;;;;16.30;39.85;98485.84;4948383;28;97884;-76
2021/01/22 01:09:52;;;;;;;3.13;2.92;;;;;;;16.30;39.99;98483.19;4961639;28;97864;-78
2021/01/22 01:12:38;;;;;;;2.58;2.58;;;;;;;16.34;39.98;98492.00;4947933;28;96978;-77
2021/01/22 01:15:37;;;;;;;2.38;2.35;;;;;;;16.40;40.01;98489.31;4912153;28;97990;-78
2021/01/22 01:18:05;;;;;;;3.03;2.90;;;;;;;16.41;40.00;98484.00;4951628;28;99325;-76
2021/01/22 01:20:33;;;;;;;3.03;2.92;;;;;;;16.46;39.80;98476.91;4947265;28;98487;-76
2021/01/22 01:23:00;;;;;;;2.90;2.70;;;;;;;16.50;39.93;98475.13;4963537;28;97872;-78
2021/01/22 01:25:47;;;;;;;2.53;2.42;;;;;;;16.57;39.49;98471.59;4944591;28;99520;-76
2021/01/22 01:28:14;;;;;;;2.30;2.20;;;;;;;16.61;39.56;98473.28;4965097;28;98220;-76
2021/01/22 01:30:42;;;;;;;2.97;2.80;;;;;;;16.67;39.69;98460.88;4939952;28;98028;-76
2021/01/22 01:33:10;;;;;;;2.90;2.70;;;;;;;16.73;39.50;98459.97;4945775;28;96998;-77
2021/01/22 01:35:38;;;;;;;2.10;2.10;;;;;;;16.79;39.50;98465.19;4949988;28;99033;-77
2021/01/22 01:38:05;;;;;;;2.50;2.50;;;;;;;16.86;39.34;98451.84;4948162;28;97745;-77
2021/01/22 01:40:33;;;;;;;2.75;2.65;;;;;;;16.86;39.44;98443.91;4946879;28;97622;-76
2021/01/22 01:43:01;;;;;;;2.75;2.65;;;;;;;16.89;39.57;98445.66;4947727;28;97320;-78
2021/01/22 01:45:29;;;;;;;2.85;2.75;;;;;;;16.93;39.39;98439.44;4945696;28;99331;-77
2021/01/22 01:47:56;;;;;;;2.20;2.10;;;;;;;16.95;39.38;98435.88;4949138;28;98200;-77
2021/01/22 01:50:24;;;;;;;2.38;2.28;;;;;;;16.97;39.42;98435.88;4950369;28;97091;-76
2021/01/22 01:52:52;;;;;;;3.13;2.92;;;;;;;16.99;39.47;98428.75;4950513;28;96924;-76
2021/01/22 01:55:19;;;;;;;2.40;2.20;;;;;;;17.00;39.49;98425.22;4949318;28;98477;-76
2021/01/22 01:57:47;;;;;;;2.20;2.20;;;;;;;17.05;39.40;98426.03;4946369;28;99981;-76
2021/01/22 02:00:34;;;;;;;2.55;2.45;;;;;;;17.14;39.29;98428.59;4951171;28;98440;-76
2021/01/22 02:03:02;;;;;;;2.58;2.47;;;;;;;17.19;39.27;98418.81;4950799;28;97771;-76
2021/01/22 02:05:31;;;;;;;2.33;2.22;;;;;;;17.27;39.04;98416.97;4945450;28;99832;-76
2021/01/22 02:07:58;;;;;;;2.28;2.28;;;;;;;17.29;39.12;98416.94;4949837;28;99241;-76
2021/01/22 02:10:25;;;;;;;2.33;2.22;;;;;;;17.30;39.18;98408.97;4946663;28;97652;-76
2021/01/22 02:12:54;;;;;;;2.30;2.20;;;;;;;17.33;39.06;98408.94;4953354;28;97049;-76
2021/01/22 02:15:22;;;;;;;2.22;2.22;;;;;;;17.37;38.95;98404.47;4944001;28;98002;-77
2021/01/22 02:17:51;;;;;;;2.33;2.22;;;;;;;17.38;39.03;98403.56;4952154;28;97959;-77
2021/01/22 02:20:30;;;;;;;2.33;2.22;;;;;;;17.41;39.04;98407.06;4949663;28;97193;-76
2021/01/22 02:22:58;;;;;;;2.17;2.17;;;;;;;17.45;38.80;98403.47;4949947;28;98049;-76
2021/01/22 02:25:29;;;;;;;2.28;2.28;;;;;;;17.43;38.88;98394.66;4950895;28;100131;-77
2021/01/22 02:27:58;;;;;;;2.30;2.25;;;;;;;17.44;38.93;98380.50;4949117;28;99573;-76
2021/01/22 02:30:26;;;;;;;2.42;2.35;;;;;;;17.40;38.94;98373.47;4948760;28;97108;-75
2021/01/22 02:32:54;;;;;;;2.55;2.45;;;;;;;17.41;38.91;98375.22;4945144;28;96767;-77
2021/01/22 02:35:23;;;;;;;2.25;2.25;;;;;;;17.37;39.08;98373.47;4947582;28;99280;-76
2021/01/22 02:37:52;;;;;;;2.40;2.30;;;;;;;17.36;38.96;98371.75;4947604;28;98947;-75
2021/01/22 02:40:20;;;;;;;2.33;2.22;;;;;;;17.37;38.99;98367.31;4949852;28;97524;-76
2021/01/22 02:42:49;;;;;;;2.55;2.45;;;;;;;17.38;39.07;98372.59;4950545;28;97261;-77
2021/01/22 02:45:18;;;;;;;2.47;2.40;;;;;;;17.40;38.91;98368.16;4949038;28;99396;-76
2021/01/22 02:47:48;;;;;;;2.20;2.10;;;;;;;17.34;39.09;98357.63;4954971;28;97830;-76
2021/01/22 02:50:16;;;;;;;3.35;3.05;;;;;;;17.36;39.00;98366.44;4952007;28;97610;-77
2021/01/22 02:52:44;;;;;;;2.00;1.83;;;;;;;17.35;38.86;98367.34;4950147;28;96945;-77
2021/01/22 02:55:13;;;;;;;2.85;2.65;;;;;;;17.33;39.01;98370.91;4951208;28;98048;-78
2021/01/22 02:57:49;;;;;;;2.63;2.00;;;;;;;17.31;38.99;98370.03;4948925;28;102029;-77
2021/01/22 03:00:21;;;;;;;2.30;2.20;;;;;;;17.28;38.99;98365.63;4948745;28;97788;-76
2021/01/22 03:02:52;;;;;;;2.10;2.00;;;;;;;17.27;39.00;98369.19;4946496;28;96970;-75
2021/01/22 03:05:39;;;;;;;2.30;2.20;;;;;;;17.28;39.02;98357.69;4945735;28;99339;-77
2021/01/22 03:08:08;;;;;;;2.38;2.10;;;;;;;17.29;38.93;98363.88;4943574;28;99202;-77
2021/01/22 03:10:37;;;;;;;2.22;2.13;;;;;;;17.29;38.93;98364.75;4949578;28;97141;-76
2021/01/22 03:13:05;;;;;;;2.55;2.45;;;;;;;17.29;38.88;98350.59;4946277;28;97202;-76
2021/01/22 03:15:34;;;;;;;2.83;2.35;;;;;;;17.30;38.78;98339.97;4950507;28;97889;-78
2021/01/22 03:18:13;;;;;;;2.50;2.33;;;;;;;17.31;38.78;98335.53;4951284;28;98521;-75
2021/01/22 03:20:42;;;;;;;2.60;2.50;;;;;;;17.33;38.73;98334.63;4954661;28;97486;-76
2021/01/22 03:23:09;;;;;;;2.80;2.60;;;;;;;17.33;38.78;98321.38;4952784;28;97714;-77
2021/01/22 03:25:37;;;;;;;2.35;2.25;;;;;;;17.35;38.68;98316.03;4948312;28;98458;-77
2021/01/22 03:28:05;;;;;;;2.40;2.40;;;;;;;17.33;38.71;98313.41;4948288;28;97741;-77
2021/01/22 03:30:32;;;;;;;2.22;2.10;;;;;;;17.32;38.72;98303.69;4949636;28;97905;-77
2021/01/22 03:33:01;;;;;;;2.40;2.30;;;;;;;17.32;38.78;98311.63;4953162;28;97829;-78
2021/01/22 03:35:29;;;;;;;2.30;2.25;;;;;;;17.34;38.85;98308.97;4946053;28;99274;-77
2021/01/22 03:37:58;;;;;;;2.20;2.20;;;;;;;17.30;38.70;98305.47;4953464;28;99345;-77
2021/01/22 03:40:26;;;;;;;2.05;2.00;;;;;;;17.31;38.67;98299.28;4946555;28;97334;-77
2021/01/22 03:42:53;;;;;;;2.50;2.40;;;;;;;17.31;39.00;98293.97;4946573;28;97162;-78
2021/01/22 03:45:21;;;;;;;2.80;2.50;;;;;;;17.34;38.79;98295.69;4947850;28;98210;-76
2021/01/22 03:47:48;;;;;;;2.40;2.40;;;;;;;17.33;38.58;98294.84;4954464;28;97778;-76
2021/01/22 03:50:17;;;;;;;2.17;2.08;;;;;;;17.37;38.55;98299.19;4949226;28;97231;-78
2021/01/22 03:52:44;;;;;;;3.10;2.22;;;;;;;17.38;38.59;98300.94;4950514;28;97616;-76
2021/01/22 03:55:12;;;;;;;2.10;2.10;;;;;;;17.35;38.53;98301.00;4949154;28;97870;-78
2021/01/22 03:58:16;;;;;;;2.40;2.33;;;;;;;17.31;38.69;98288.66;4952306;28;98493;-78
2021/01/22 04:00:43;;;;;;;2.63;2.50;;;;;;;17.25;38.82;98299.34;4952363;28;97286;-77
2021/01/22 04:03:11;;;;;;;2.40;2.17;;;;;;;17.20;38.95;98291.47;4948104;28;97501;-77
2021/01/22 04:05:39;;;;;;;2.60;2.45;;;;;;;17.17;38.96;98291.50;4951147;28;98529;-75
2021/01/22 04:08:07;;;;;;;2.20;2.10;;;;;;;17.14;38.94;98285.34;4944794;28;99164;-76
2021/01/22 04:10:34;;;;;;;2.15;2.10;;;;;;;17.07;39.10;98294.28;4948696;28;97595;-77
2021/01/22 04:13:02;;;;;;;2.10;2.10;;;;;;;17.10;38.96;98279.22;4950598;28;97434;-75
2021/01/22 04:15:30;;;;;;;2.28;2.17;;;;;;;17.06;39.01;98277.47;4947530;28;97870;-77
2021/01/22 04:17:57;;;;;;;2.90;2.70;;;;;;;17.09;38.96;98276.59;4943799;28;98282;-77
2021/01/22 04:20:25;;;;;;;2.35;2.25;;;;;;;17.09;38.99;98273.94;4951051;28;98670;-76
2021/01/22 04:22:53;;;;;;;2.15;2.13;;;;;;;17.12;38.92;98282.72;4952508;28;97976;-77
2021/01/22 04:25:20;;;;;;;1.80;1.80;;;;;;;17.03;39.05;98272.22;4952417;28;99482;-77
2021/01/22 04:27:48;;;;;;;2.10;2.00;;;;;;;17.09;39.04;98271.28;4945409;28;97763;-77
2021/01/22 04:30:16;;;;;;;2.53;2.20;;;;;;;17.12;38.89;98257.97;4942860;28;97727;-76
2021/01/22 04:32:43;;;;;;;2.60;2.40;;;;;;;17.13;38.91;98255.28;4947176;28;97171;-77
2021/01/22 04:35:13;;;;;;;2.35;2.15;;;;;;;17.15;38.87;98255.28;4964753;28;97803;-76
2021/01/22 04:37:41;;;;;;;2.45;2.10;;;;;;;17.19;38.73;98263.16;4951124;28;97869;-77
2021/01/22 04:40:11;;;;;;;2.50;2.50;;;;;;;17.19;38.74;98270.25;4947536;28;97293;-77
2021/01/22 04:42:40;;;;;;;3.88;3.50;;;;;;;17.19;38.97;98252.56;4948182;28;97147;-77
2021/01/22 04:45:09;;;;;;;2.78;2.58;;;;;;;17.23;38.76;98253.38;4949218;28;97847;-77
2021/01/22 04:47:37;;;;;;;2.67;2.58;;;;;;;17.26;38.67;98248.06;4951216;28;97904;-77
2021/01/22 04:50:06;;;;;;;1.90;1.90;;;;;;;17.30;38.73;98246.25;4944112;28;97700;-77
2021/01/22 04:52:35;;;;;;;2.35;2.17;;;;;;;17.31;38.59;98243.56;4949024;28;97367;-77
2021/01/22 04:55:06;;;;;;;2.65;2.55;;;;;;;17.33;38.45;98243.53;4951086;28;98285;-77
2021/01/22 04:57:39;;;;;;;3.10;2.90;;;;;;;17.28;38.69;98246.22;4964226;28;99115;-77
2021/01/22 05:00:08;;;;;;;2.35;2.25;;;;;;;17.28;38.67;98240.94;4948892;28;98183;-77
2021/01/22 05:02:36;;;;;;;2.45;2.38;;;;;;;17.29;38.66;98241.81;4943971;28;98143;-78
2021/01/22 05:05:05;;;;;;;2.60;2.60;;;;;;;17.32;38.61;98236.47;4943771;28;99081;-77
2021/01/22 05:07:33;;;;;;;5.88;4.20;;;;;;;17.32;38.57;98218.75;4945280;28;99396;-76
2021/01/22 05:10:03;;;;;;;3.08;2.83;;;;;;;17.31;38.55;98227.63;4946512;28;96963;-76
2021/01/22 05:12:35;;;;;;;4.88;3.22;;;;;;;17.29;38.47;98226.78;4948741;28;98074;-78
2021/01/22 05:15:13;;;;;;;2.53;2.42;;;;;;;17.28;38.33;98214.41;4949496;28;98111;-77
2021/01/22 05:17:55;;;;;;;2.55;2.45;;;;;;;17.26;38.44;98226.84;4947561;28;98138;-76
2021/01/22 05:20:30;;;;;;;27.52;14.15;;;;;;;17.25;38.38;98225.06;4949436;28;97464;-75
2021/01/22 05:23:06;;;;;;;3.13;2.92;;;;;;;17.24;38.34;98234.78;4949776;28;97491;-77
2021/01/22 05:25:34;;;;;;;2.38;2.38;;;;;;;17.22;38.51;98225.13;4945537;28;99593;-76
2021/01/22 05:28:03;;;;;;;2.65;2.20;;;;;;;17.20;38.70;98216.31;4947028;28;97893;-77
2021/01/22 05:30:31;;;;;;;2.42;2.40;;;;;;;17.20;38.58;98224.25;4947389;28;97912;-76
2021/01/22 05:33:17;;;;;;;2.47;2.38;;;;;;;17.20;38.30;98216.31;4950590;28;96759;-76
2021/01/22 05:35:44;;;;;;;3.13;2.92;;;;;;;17.19;38.65;98219.84;4946051;28;97826;-77
2021/01/22 05:38:12;;;;;;;2.33;2.22;;;;;;;17.11;38.78;98227.03;4949074;28;98669;-77
2021/01/22 05:40:49;;;;;;;2.30;2.30;;;;;;;17.16;38.67;98215.47;4942590;28;98368;-75
2021/01/22 05:43:17;;;;;;;2.15;2.05;;;;;;;17.14;38.65;98227.00;4951693;28;97084;-76
2021/01/22 05:45:46;;;;;;;2.90;2.70;;;;;;;17.13;38.62;98227.91;4950130;28;98920;-77
2021/01/22 05:48:20;;;;;;;2.42;2.33;;;;;;;17.13;38.55;98226.09;4948398;28;99255;-77
2021/01/22 05:50:51;;;;;;;2.38;2.20;;;;;;;17.12;38.69;98232.31;4948559;28;97765;-77
2021/01/22 05:53:20;;;;;;;3.58;3.42;;;;;;;17.12;38.66;98223.47;4947586;28;97433;-77
2021/01/22 05:56:05;;;;;;;2.00;2.00;;;;;;;17.05;38.51;98248.34;4947680;28;98265;-75
2021/01/22 05:58:34;;;;;;;2.78;2.67;;;;;;;17.13;38.74;98233.22;4948353;28;98114;-76
2021/01/22 06:01:06;;;;;;;2.33;2.22;;;;;;;17.12;38.47;98223.47;4955629;28;97705;-76
2021/01/22 06:03:34;;;;;;;2.30;2.20;;;;;;;17.13;38.67;98227.91;4953198;28;97523;-77
2021/01/22 06:06:02;;;;;;;2.40;2.30;;;;;;;17.13;38.67;98230.56;4947657;28;97979;-76
2021/01/22 06:08:30;;;;;;;2.35;2.28;;;;;;;17.14;38.56;98234.94;4946628;28;99079;-77
2021/01/22 06:11:00;;;;;;;2.28;2.28;;;;;;;17.18;38.42;98239.31;4947539;28;98029;-77
2021/01/22 06:13:30;;;;;;;2.42;2.33;;;;;;;17.16;38.61;98246.41;4948902;28;98005;-76
2021/01/22 06:15:59;;;;;;;2.20;2.20;;;;;;;17.15;38.65;98247.31;4952630;28;99033;-76
2021/01/22 06:18:31;;;;;;;2.10;2.10;;;;;;;17.16;38.67;98251.72;4949493;28;99097;-76
2021/01/22 06:21:14;;;;;;;2.22;2.13;;;;;;;17.09;38.66;98245.63;4951374;28;96844;-77
2021/01/22 06:23:42;;;;;;;2.25;2.20;;;;;;;17.08;38.78;98250.94;4951907;28;97141;-75
2021/01/22 06:26:11;;;;;;;1.95;1.95;;;;;;;17.08;38.83;98249.16;4956039;28;97816;-76
2021/01/22 06:28:39;;;;;;;2.63;2.30;;;;;;;17.08;38.82;98261.53;4951895;28;98896;-76
2021/01/22 06:31:09;;;;;;;2.40;2.40;;;;;;;17.02;39.04;98264.28;4949499;28;97395;-75
2021/01/22 06:33:55;;;;;;;2.75;2.55;;;;;;;17.05;38.92;98253.63;4948792;28;97235;-76
2021/01/22 06:36:23;;;;;;;2.35;2.20;;;;;;;17.02;38.99;98259.00;4950325;28;98325;-76
2021/01/22 06:38:52;;;;;;;2.17;2.10;;;;;;;17.00;38.93;98266.09;4952833;28;98522;-78
2021/01/22 06:41:24;;;;;;;2.00;2.00;;;;;;;17.00;39.08;98274.94;4946629;28;97145;-78
2021/01/22 06:43:52;;;;;;;2.40;2.20;;;;;;;17.06;38.87;98276.63;4945841;28;97247;-77
2021/01/22 06:46:21;;;;;;;2.20;2.13;;;;;;;17.07;38.88;98288.97;4944260;28;99047;-77
2021/01/22 06:48:53;;;;;;;2.65;2.55;;;;;;;17.06;39.07;98297.84;4949392;28;98536;-79
2021/01/22 06:51:21;;;;;;;2.53;2.42;;;;;;;17.01;39.11;98308.50;4944796;28;97161;-79
2021/01/22 06:54:11;;;;;;;2.38;2.28;;;;;;;16.97;39.92;98329.78;4947065;28;97087;-76
2021/01/22 06:57:06;;;;;;;2.45;2.25;;;;;;;16.97;40.04;98346.56;4946121;28;98229;-76
2021/01/22 06:59:40;;;;;;;2.28;2.28;;;;;;;16.92;41.68;98443.84;4948727;28;98994;-76
2021/01/22 07:02:40;;;;;;;2.03;2.03;;;;;;;16.39;49.04;98459.28;4950037;28;97536;-76
2021/01/22 07:05:37;;;;;;;3.35;2.10;;;;;;;16.13;46.61;98472.72;4939338;28;99523;-76
2021/01/22 07:08:05;;;;;;;2.22;2.17;;;;;;;15.79;43.51;98468.50;4944151;28;97856;-77
2021/01/22 07:11:02;;;;;;;2.38;2.22;;;;;;;15.57;44.63;98490.63;4941050;28;98062;-76
2021/01/22 07:13:38;;;;;;;1.92;1.92;;;;;;;15.34;43.21;98487.16;4943614;28;97461;-76
2021/01/22 07:16:08;;;;;;;3.10;1.90;;;;;;;15.16;42.95;98508.34;4947001;28;97777;-76
2021/01/22 07:18:43;;;;;;;2.10;1.95;;;;;;;15.05;44.44;98513.63;4949504;28;98632;-76
2021/01/22 07:21:24;;;;;;;1.90;1.90;;;;;;;14.98;44.42;98521.59;4941110;28;100607;-77
2021/01/22 07:23:53;;;;;;;2.60;2.50;;;;;;;14.85;43.42;98522.47;4942473;28;97106;-75
2021/01/22 07:26:21;;;;;;;1.98;1.98;;;;;;;14.69;43.56;98529.50;4959194;28;97378;-75
2021/01/22 07:28:50;;;;;;;1.90;1.90;;;;;;;14.62;43.15;98543.59;4945969;28;99252;-75
2021/01/22 07:32:04;;;;;;;1.80;1.80;;;;;;;14.51;43.65;98534.75;4946918;28;97767;-76
2021/01/22 07:34:44;;;;;;;1.90;1.90;;;;;;;14.46;43.11;98540.91;4921849;28;97394;-76
2021/01/22 07:37:13;;;;;;;1.90;1.90;;;;;;;14.44;42.44;98535.63;4947198;28;97119;-75
2021/01/22 07:39:42;;;;;;;1.95;1.95;;;;;;;14.42;42.81;98544.44;4946314;28;99198;-75
2021/01/22 07:42:10;;;;;;;2.10;2.10;;;;;;;14.28;42.30;98559.38;4944814;28;97866;-76
2021/01/22 07:45:13;;;;;;;1.90;1.80;;;;;;;14.15;42.18;98556.66;4945225;28;96824;-75
2021/01/22 07:47:46;;;;;;;1.80;1.80;;;;;;;14.10;42.06;98568.94;4943601;28;97480;-75
2021/01/22 07:50:16;;;;;;;1.90;1.90;;;;;;;14.08;42.03;98570.72;4945483;28;97917;-75
2021/01/22 07:52:45;;;;;;;1.83;1.83;;;;;;;14.03;41.92;98587.44;4945898;28;98182;-75
2021/01/22 07:55:17;;;;;;;2.20;2.10;;;;;;;13.97;42.00;98588.28;4944624;28;97912;-76
2021/01/22 07:57:45;;;;;;;1.95;1.95;;;;;;;13.98;41.95;98595.31;4943804;28;97139;-75
2021/01/22 08:00:14;;;;;;;2.17;2.00;;;;;;;13.88;42.07;98592.63;4948888;28;98646;-74
2021/01/22 08:02:54;;;;;;;2.20;2.10;;;;;;;13.84;42.03;98602.28;4960906;28;98060;-74
2021/01/22 08:05:31;;;;;;;2.42;2.42;;;;;;;13.78;41.74;98615.44;4945933;28;98546;-74
2021/01/22 08:07:59;;;;;;;2.30;2.20;;;;;;;13.79;41.61;98618.97;4954993;28;97201;-75
2021/01/22 08:10:29;;;;;;;2.00;2.00;;;;;;;13.82;41.85;98619.88;4950040;28;98361;-74
2021/01/22 08:12:57;;;;;;;2.10;2.10;;;;;;;13.82;41.64;98632.16;4944623;28;98336;-73
2021/01/22 08:15:26;;;;;;;2.40;2.30;;;;;;;13.86;41.52;98640.13;4952708;28;98127;-73
2021/01/22 08:17:54;;;;;;;2.35;2.35;;;;;;;13.94;41.38;98634.91;4950549;28;96869;-72
2021/01/22 08:20:22;;;;;;;2.22;2.17;;;;;;;13.90;41.43;98617.28;4952024;28;99216;-72
2021/01/22 08:22:54;;;;;;;2.00;2.00;;;;;;;13.86;41.77;98639.22;4951323;28;101064;-75
2021/01/22 08:25:29;;;;;;;2.00;2.00;;;;;;;13.87;41.35;98633.97;4945210;28;97398;-74
2021/01/22 08:28:05;;;;;;;2.22;2.22;;;;;;;13.90;41.49;98641.88;4941884;28;96839;-74
2021/01/22 08:30:34;;;;;;;2.25;2.20;;;;;;;13.92;41.53;98636.63;4945962;28;98083;-74
2021/01/22 08:33:02;;;;;;;2.30;2.30;;;;;;;13.88;41.51;98654.22;4948647;28;98093;-75
2021/01/22 08:35:31;;;;;;;2.33;2.30;;;;;;;13.87;41.49;98652.44;4947665;28;97838;-74
2021/01/22 08:37:59;;;;;;;2.50;2.30;;;;;;;13.89;41.38;98682.34;4948591;28;97509;-72
2021/01/22 08:40:38;;;;;;;2.20;2.10;;;;;;;13.91;41.58;98687.63;4946987;28;99154;-73
2021/01/22 08:43:08;;;;;;;2.33;2.33;;;;;;;13.92;41.53;98699.97;4964033;28;98058;-72
2021/01/22 08:45:35;;;;;;;2.25;2.25;;;;;;;13.98;41.24;98692.06;4943131;28;97395;-76
2021/01/22 08:48:04;;;;;;;2.08;2.08;;;;;;;14.01;41.42;98689.47;4942242;28;97167;-74
2021/01/22 08:50:32;;;;;;;2.13;2.13;;;;;;;14.06;41.17;98683.34;4943370;28;99190;-74
2021/01/22 08:53:09;;;;;;;2.05;2.05;;;;;;;14.08;41.17;98676.31;4942010;28;98980;-73
2021/01/22 08:55:37;;;;;;;2.10;2.10;;;;;;;14.06;41.02;98693.03;4943185;28;97426;-74
2021/01/22 08:58:06;;;;;;;2.10;2.10;;;;;;;14.07;41.24;98690.38;4945698;28;97392;-77
2021/01/22 09:00:34;;;;;;;2.80;2.70;;;;;;;14.11;41.12;98686.91;4942139;28;98001;-75
2021/01/22 09:03:03;;;;;;;2.30;2.30;;;;;;;14.16;40.93;98684.25;4944365;28;98185;-74
2021/01/22 09:05:30;;;;;;;2.33;2.30;;;;;;;14.19;40.68;98684.28;4943339;28;97340;-73
2021/01/22 09:08:05;;;;;;;2.22;2.22;;;;;;;14.19;40.85;98687.81;4939510;28;98124;-75
2021/01/22 09:10:40;;;;;;;2.50;2.50;;;;;;;14.15;41.01;98693.97;4942661;28;98202;-76
2021/01/22 09:13:11;;;;;;;2.20;2.20;;;;;;;14.12;41.17;98701.84;4945813;28;98821;-75
2021/01/22 09:15:40;;;;;;;2.17;2.17;;;;;;;14.10;40.87;98706.22;4944214;28;97046;-76
2021/01/22 09:18:18;;;;;;;2.08;2.08;;;;;;;14.09;40.86;98717.69;4940470;28;97744;-74
2021/01/22 09:20:57;;;;;;;2.25;2.20;;;;;;;14.07;40.78;98739.66;4941074;28;100642;-73
2021/01/22 09:23:25;;;;;;;2.17;2.13;;;;;;;14.02;40.77;98746.66;4941486;28;98023;-75
2021/01/22 09:25:54;;;;;;;2.58;2.38;;;;;;;14.02;41.05;98757.22;4942219;28;97361;-74
2021/01/22 09:28:21;;;;;;;2.38;2.28;;;;;;;14.02;40.89;98773.94;4940630;28;97293;-75
2021/01/22 09:30:49;;;;;;;2.45;2.45;;;;;;;13.99;40.71;98773.06;4943661;28;99155;-75
2021/01/22 09:33:17;;;;;;;3.17;2.70;;;;;;;13.96;40.93;98763.34;4945750;28;98006;-74
2021/01/22 09:35:45;;;;;;;2.30;2.30;;;;;;;13.94;41.26;98772.16;4945744;28;97833;-74
2021/01/22 09:38:12;;;;;;;2.60;2.50;;;;;;;13.95;41.23;98768.63;4943356;28;97970;-74
2021/01/22 09:40:40;;;;;;;2.88;2.78;;;;;;;13.98;40.74;98771.25;4934122;28;98756;-76
2021/01/22 09:43:08;;;;;;;2.55;2.47;;;;;;;13.98;40.95;98777.44;4943798;28;97924;-75
2021/01/22 09:45:36;;;;;;;2.58;2.55;;;;;;;13.91;40.79;98786.19;4947660;28;97129;-77
2021/01/22 09:48:04;;;;;;;2.65;2.50;;;;;;;13.91;41.17;98777.38;4942924;28;97381;-76
2021/01/22 09:50:31;;;;;;;2.70;2.60;;;;;;;13.90;40.92;98765.94;4947801;28;98745;-81
2021/01/22 09:52:59;;;;;;;2.60;2.50;;;;;;;13.93;40.87;98771.25;4951476;28;98975;-76
2021/01/22 09:55:27;;;;;;;2.50;2.40;;;;;;;13.93;40.97;98783.56;4958058;28;96954;-73
2021/01/22 09:57:55;;;;;;;2.40;2.40;;;;;;;13.93;41.10;98778.28;4958165;28;96869;-74
2021/01/22 10:00:24;;;;;;;2.30;2.30;;;;;;;13.87;41.49;98779.09;4942969;28;98038;-74
2021/01/22 10:02:51;;;;;;;2.35;2.35;;;;;;;13.88;41.07;98782.63;4941619;28;97788;-75
2021/01/22 10:05:19;;;;;;;2.65;2.55;;;;;;;13.86;40.91;98774.72;4937599;28;96813;-74
2021/01/22 10:07:46;;;;;;;2.30;2.30;;;;;;;13.88;40.97;98786.16;4945231;28;97298;-73
2021/01/22 10:10:14;;;;;;;2.47;2.28;;;;;;;13.94;40.83;98786.19;4961679;28;100468;-75
2021/01/22 10:12:41;;;;;;;2.45;2.45;;;;;;;13.97;40.71;98777.44;4945778;28;98990;-73
2021/01/22 10:15:10;;;;;;;2.42;2.42;;;;;;;13.99;40.73;98788.88;4951436;28;98717;-73
2021/01/22 10:17:39;;;;;;;2.20;2.20;;;;;;;14.05;40.81;98786.31;4950374;28;99902;-73
2021/01/22 10:20:08;;;;;;;2.53;2.47;;;;;;;14.09;41.01;98793.34;4949794;28;98872;-76
2021/01/22 10:22:35;;;;;;;2.20;2.20;;;;;;;14.09;40.99;98804.81;4942907;28;99410;-75
2021/01/22 10:25:03;;;;;;;2.10;2.10;;;;;;;14.02;41.20;98794.19;4942923;28;96823;-77
2021/01/22 10:27:31;;;;;;;2.50;2.40;;;;;;;14.07;40.81;98803.91;4945146;28;97233;-76
2021/01/22 10:29:58;;;;;;;2.25;2.25;;;;;;;14.06;40.84;98804.78;4947959;28;101663;-77
2021/01/22 10:32:52;;;;;;;2.15;2.15;;;;;;;14.02;41.07;98803.00;4942358;28;99551;-76
2021/01/22 10:35:20;;;;;;;2.60;2.47;;;;;;;14.02;40.98;98808.28;4976207;22;99395;-76
2021/01/22 10:37:51;;;;;;;2.50;2.50;;;;;;;14.04;41.17;98817.09;4981122;28;97707;-76
2021/01/22 10:40:18;;;;;;;2.30;2.20;;;;;;;14.02;41.25;98824.13;4977237;28;99019;-74
2021/01/22 10:42:46;;;;;;;2.85;2.65;;;;;;;14.12;41.18;98836.50;4974031;28;99359;-77
2021/01/22 10:45:14;;;;;;;2.40;2.30;;;;;;;14.19;40.79;98824.25;4975451;28;97063;-76
2021/01/22 10:47:43;;;;;;;2.50;2.47;;;;;;;14.17;41.22;98836.53;4973342;28;97966;-76
2021/01/22 10:50:12;;;;;;;2.45;2.45;;;;;;;14.18;40.95;98828.63;4978284;28;98177;-78
2021/01/22 10:52:40;;;;;;;2.42;2.42;;;;;;;14.17;40.73;98823.34;4979786;28;98169;-77
2021/01/22 10:55:08;;;;;;;3.00;2.90;;;;;;;14.20;40.66;98826.00;4977750;28;97310;-73
2021/01/22 10:57:36;;;;;;;3.17;2.97;;;;;;;14.22;40.90;98825.16;4976379;28;96846;-81
2021/01/22 11:00:05;;;;;;;2.55;2.45;;;;;;;14.21;40.74;98820.72;4980553;28;97998;-78
2021/01/22 11:02:32;;;;;;;2.42;2.42;;;;;;;14.19;41.05;98804.00;4981761;28;98110;-78
2021/01/22 11:05:00;;;;;;;2.90;2.72;;;;;;;14.19;40.58;98811.94;4983059;28;96823;-79
2021/01/22 11:07:30;;;;;;;2.90;2.80;;;;;;;14.24;40.98;98818.13;4980720;28;98458;-78
2021/01/22 11:09:57;;;;;;;2.80;2.70;;;;;;;14.24;40.98;98818.13;4978591;28;99807;-79
2021/01/22 11:12:25;;;;;;;3.05;2.92;;;;;;;14.29;40.56;98827.88;4964845;28;99466;-78
2021/01/22 11:15:11;;;;;;;2.75;2.65;;;;;;;14.31;40.54;98823.47;4980362;28;97724;-77
2021/01/22 11:17:39;;;;;;;2.70;2.60;;;;;;;14.34;40.68;98820.84;4980237;28;99023;-76
2021/01/22 11:20:08;;;;;;;3.17;2.70;;;;;;;14.34;40.57;98816.47;4980763;28;100605;-77
2021/01/22 11:22:36;;;;;;;2.70;2.60;;;;;;;14.37;40.61;98826.16;4980241;28;98198;-76
2021/01/22 11:25:04;;;;;;;2.60;2.50;;;;;;;14.40;40.44;98813.00;4981258;28;97274;-77
2021/01/22 11:27:33;;;;;;;2.17;2.17;;;;;;;14.39;40.76;98812.09;4978925;28;99618;-81
2021/01/22 11:30:02;;;;;;;2.45;2.40;;;;;;;14.42;40.60;98816.50;4962296;28;99046;-77
2021/01/22 11:32:29;;;;;;;3.00;2.90;;;;;;;14.46;40.67;98823.56;4979868;28;98001;-77
2021/01/22 11:34:57;;;;;;;2.58;2.58;;;;;;;14.48;40.38;98819.19;4975127;28;98149;-76
2021/01/22 11:37:25;;;;;;;2.50;2.40;;;;;;;14.57;40.26;98827.16;4978080;28;98033;-76
2021/01/22 11:39:53;;;;;;;2.33;2.33;;;;;;;14.63;40.24;98820.19;4976589;28;99609;-77
2021/01/22 11:42:20;;;;;;;2.20;2.10;;;;;;;14.69;39.66;98814.91;4975464;28;99135;-78
2021/01/22 11:44:48;;;;;;;2.10;2.10;;;;;;;14.74;39.93;98822.88;4978443;28;97648;-76
2021/01/22 11:47:16;;;;;;;2.20;2.10;;;;;;;14.80;39.41;98823.75;4979699;28;97238;-76
2021/01/22 11:49:43;;;;;;;2.03;2.03;;;;;;;14.83;39.60;98833.47;4977864;28;99013;-76